createdAt,value
2023-05-05T00:03:38.879Z,12.60
2023-05-05T00:08:42.065Z,12.50
2023-05-05T00:13:45.121Z,12.40
2023-05-05T00:18:48.089Z,12.20
2023-05-05T00:23:51.394Z,12.10
2023-05-05T00:28:54.300Z,12.00
2023-05-05T00:33:57.266Z,11.90
2023-05-05T00:39:00.232Z,11.80
2023-05-05T00:44:03.480Z,11.70
2023-05-05T00:49:06.883Z,11.60
2023-05-05T00:54:10.056Z,11.50
2023-05-05T00:59:13.007Z,11.50
2023-05-05T01:04:16.169Z,11.40
2023-05-05T01:09:43.134Z,11.20
2023-05-05T01:15:01.376Z,11.20
2023-05-05T01:20:54.883Z,11.20
2023-05-05T01:26:32.603Z,11.10
2023-05-05T01:31:54.950Z,11.00
2023-05-05T01:37:27.030Z,10.90
2023-05-05T01:42:30.926Z,10.80
2023-05-05T01:47:36.070Z,10.80
2023-05-05T01:52:41.920Z,10.70
2023-05-05T01:57:47.078Z,10.70
2023-05-05T02:02:50.857Z,10.70
2023-05-05T02:08:00.174Z,10.70
2023-05-05T02:13:04.584Z,10.70
2023-05-05T02:18:08.543Z,10.70
2023-05-05T02:23:11.526Z,10.60
2023-05-05T02:28:51.300Z,10.60
2023-05-05T02:34:01.429Z,10.50
2023-05-05T02:39:14.364Z,10.40
2023-05-05T02:44:19.587Z,10.40
2023-05-05T02:49:22.657Z,10.20
2023-05-05T02:54:27.344Z,10.20
2023-05-05T02:59:58.539Z,10.10
2023-05-05T03:05:11.085Z,10.10
2023-05-05T03:10:20.361Z,10.10
2023-05-05T03:15:41.549Z,10.10
2023-05-05T03:20:44.577Z,10.00
2023-05-05T03:25:49.561Z,10.00
2023-05-05T03:30:53.416Z,10.10
2023-05-05T03:35:56.288Z,10.10
2023-05-05T03:41:03.459Z,10.10
2023-05-05T03:46:06.498Z,10.10
2023-05-05T03:51:09.767Z,10.10
2023-05-05T03:56:13.524Z,10.10
2023-05-05T04:01:16.774Z,10.10
2023-05-05T04:06:19.623Z,10.20
2023-05-05T04:11:22.692Z,10.30
2023-05-05T04:16:26.181Z,10.50
2023-05-05T04:21:29.255Z,10.60
2023-05-05T04:26:32.293Z,10.80
2023-05-05T04:31:35.439Z,10.90
2023-05-05T04:36:38.452Z,10.90
2023-05-05T04:41:41.364Z,11.00
2023-05-05T04:46:44.390Z,11.10
2023-05-05T04:51:47.398Z,11.20
2023-05-05T04:56:50.892Z,11.30
2023-05-05T05:01:53.888Z,11.30
2023-05-05T05:06:59.095Z,11.40
2023-05-05T05:12:03.168Z,11.50
2023-05-05T05:17:07.108Z,11.70
2023-05-05T05:22:10.038Z,11.90
2023-05-05T05:27:13.091Z,12.20
2023-05-05T05:32:15.853Z,12.30
2023-05-05T05:37:19.193Z,12.60
2023-05-05T05:42:22.363Z,12.80
2023-05-05T05:47:25.695Z,13.10
2023-05-05T05:52:28.695Z,13.40
2023-05-05T05:57:32.427Z,13.70
2023-05-05T06:02:35.569Z,14.00
2023-05-05T06:07:38.692Z,14.30
2023-05-05T06:12:42.068Z,14.50
2023-05-05T06:17:45.064Z,14.70
2023-05-05T06:22:47.880Z,14.90
2023-05-05T06:27:51.106Z,15.10
2023-05-05T06:32:54.388Z,15.30
2023-05-05T06:37:57.572Z,15.50
2023-05-05T06:43:00.655Z,15.60
2023-05-05T06:48:03.844Z,15.60
2023-05-05T06:53:06.929Z,15.70
2023-05-05T06:58:09.978Z,15.90
2023-05-05T07:03:13.782Z,16.10
2023-05-05T07:08:16.775Z,16.30
2023-05-05T07:13:19.846Z,16.60
2023-05-05T07:18:22.882Z,16.70
2023-05-05T07:23:26.034Z,16.80
2023-05-05T07:28:28.810Z,17.00
2023-05-05T07:33:31.779Z,17.30
2023-05-05T07:38:34.667Z,17.40
2023-05-05T07:43:39.411Z,17.50
2023-05-05T07:48:42.691Z,17.50
2023-05-05T07:53:46.026Z,17.60
2023-05-05T07:58:49.440Z,17.80
2023-05-05T08:03:52.467Z,18.10
2023-05-05T08:08:56.103Z,18.30
2023-05-05T08:13:59.054Z,18.50
2023-05-05T08:19:02.868Z,18.80
2023-05-05T08:24:05.970Z,19.00
2023-05-05T08:29:08.887Z,19.20
2023-05-05T08:34:11.945Z,19.30
2023-05-05T08:39:14.972Z,19.40
2023-05-05T08:44:17.922Z,19.70
2023-05-05T08:49:22.102Z,20.20
2023-05-05T08:54:30.551Z,20.40
2023-05-05T08:59:34.299Z,20.50
2023-05-05T09:04:37.404Z,20.70
2023-05-05T09:09:40.655Z,20.70
2023-05-05T09:14:43.692Z,20.90
2023-05-05T09:20:10.540Z,21.00
2023-05-05T09:25:16.462Z,20.90
2023-05-05T09:30:26.063Z,20.90
2023-05-05T09:35:29.486Z,21.00
2023-05-05T09:40:49.446Z,21.10
2023-05-05T09:46:05.111Z,21.20
2023-05-05T09:51:08.434Z,21.30
2023-05-05T09:56:12.290Z,21.50
2023-05-05T10:01:23.828Z,21.60
2023-05-05T10:06:48.356Z,21.70
2023-05-05T10:11:51.901Z,21.80
2023-05-05T10:16:55.746Z,21.80
2023-05-05T10:22:03.820Z,22.00
2023-05-05T10:27:23.311Z,22.20
2023-05-05T10:37:47.717Z,22.40
2023-05-05T10:42:51.806Z,22.50
2023-05-05T10:47:59.262Z,22.60
2023-05-05T10:53:17.626Z,22.90
2023-05-05T10:58:55.610Z,23.10
2023-05-05T11:04:22.428Z,23.20
2023-05-05T11:09:29.478Z,23.40
2023-05-05T11:14:32.445Z,23.50
2023-05-05T11:19:48.559Z,23.50
2023-05-05T11:24:51.616Z,23.50
2023-05-05T11:30:09.060Z,23.50
2023-05-05T11:35:13.181Z,23.60
2023-05-05T11:40:30.965Z,23.70
2023-05-05T11:45:35.118Z,23.60
2023-05-05T11:50:38.617Z,23.60
2023-05-05T11:55:41.641Z,23.80
2023-05-05T12:00:44.710Z,23.90
2023-05-05T12:05:48.793Z,24.10
2023-05-05T12:10:51.812Z,24.20
2023-05-05T12:15:54.925Z,24.50
2023-05-05T12:20:58.124Z,25.10
2023-05-05T12:26:01.388Z,25.70
2023-05-05T12:31:04.391Z,26.30
2023-05-05T12:36:10.928Z,26.90
2023-05-05T12:41:20.072Z,27.30
2023-05-05T12:46:23.488Z,27.60
2023-05-05T12:51:27.134Z,27.60
2023-05-05T12:56:36.986Z,27.80
2023-05-05T13:01:54.165Z,27.80
2023-05-05T13:07:15.647Z,27.70
2023-05-05T13:12:19.207Z,27.60
2023-05-05T13:17:22.426Z,27.60
2023-05-05T13:22:25.751Z,27.50
2023-05-05T13:27:29.140Z,27.40
2023-05-05T13:32:31.883Z,27.20
2023-05-05T13:37:35.001Z,27.00
2023-05-05T13:42:37.710Z,27.00
2023-05-05T13:47:42.031Z,26.70
2023-05-05T13:52:45.392Z,26.60
2023-05-05T13:57:48.783Z,26.70
2023-05-05T14:02:51.849Z,27.00
2023-05-05T14:07:55.573Z,27.70
2023-05-05T14:12:58.800Z,28.10
2023-05-05T14:18:01.921Z,28.10
2023-05-05T14:23:04.861Z,28.70
2023-05-05T14:28:07.898Z,28.80
2023-05-05T14:33:10.747Z,28.60
2023-05-05T14:38:13.766Z,28.50
2023-05-05T14:43:16.759Z,28.20
2023-05-05T14:48:22.278Z,28.00
2023-05-05T14:53:25.305Z,28.20
2023-05-05T14:58:28.741Z,28.70
2023-05-05T15:03:31.804Z,29.10
2023-05-05T15:08:35.131Z,29.30
2023-05-05T15:13:41.678Z,29.30
2023-05-05T15:18:44.633Z,29.40
2023-05-05T15:23:47.637Z,29.30
2023-05-05T15:28:52.463Z,29.10
2023-05-05T15:33:56.170Z,28.90
2023-05-05T15:38:59.177Z,28.90
2023-05-05T15:44:03.291Z,28.90
2023-05-05T15:49:06.377Z,28.90
2023-05-05T15:54:09.318Z,28.80
2023-05-05T15:59:12.381Z,28.70
2023-05-05T16:04:15.375Z,28.50
2023-05-05T16:09:19.449Z,28.30
2023-05-05T16:14:22.460Z,28.00
2023-05-05T16:19:29.863Z,27.70
2023-05-05T16:24:32.896Z,27.50
2023-05-05T16:29:35.852Z,27.20
2023-05-05T16:34:38.771Z,26.90
2023-05-05T16:39:42.634Z,26.70
2023-05-05T16:44:45.652Z,26.40
2023-05-05T16:49:48.652Z,26.10
2023-05-05T16:54:55.779Z,25.80
2023-05-05T16:59:59.055Z,25.40
2023-05-05T17:05:02.920Z,24.80
2023-05-05T17:10:07.244Z,24.50
2023-05-05T17:15:10.993Z,24.10
2023-05-05T17:20:14.486Z,23.80
2023-05-05T17:25:17.424Z,23.50
2023-05-05T17:30:21.160Z,23.20
2023-05-05T17:35:24.272Z,22.70
2023-05-05T17:40:27.036Z,22.30
2023-05-05T17:45:30.695Z,21.80
2023-05-05T17:50:33.790Z,21.40
2023-05-05T17:55:36.765Z,20.90
2023-05-05T18:00:40.457Z,20.50
2023-05-05T18:05:43.438Z,20.10
2023-05-05T18:10:46.898Z,19.80
2023-05-05T18:15:50.073Z,19.50
2023-05-05T18:20:52.981Z,19.10
2023-05-05T18:25:55.899Z,18.80
2023-05-05T18:30:59.050Z,18.50
2023-05-05T18:36:03.810Z,18.40
2023-05-05T18:41:06.856Z,18.30
2023-05-05T18:46:09.934Z,18.10
2023-05-05T18:51:12.907Z,18.00
2023-05-05T18:56:15.910Z,17.90
2023-05-05T19:01:19.143Z,17.70
2023-05-05T19:06:22.127Z,17.60
2023-05-05T19:11:25.271Z,17.40
2023-05-05T19:16:29.297Z,17.30
2023-05-05T19:21:33.234Z,17.20
2023-05-05T19:26:36.188Z,17.00
2023-05-05T19:31:39.985Z,16.90
2023-05-05T19:36:43.132Z,16.80
2023-05-05T19:41:46.268Z,16.60
2023-05-05T19:46:49.184Z,16.50
2023-05-05T19:51:52.924Z,16.40
2023-05-05T19:56:57.427Z,16.30
2023-05-05T20:02:00.801Z,16.20
2023-05-05T20:07:04.569Z,16.10
2023-05-05T20:12:08.344Z,16.00
2023-05-05T20:17:12.615Z,15.90
2023-05-05T20:22:15.649Z,15.90
2023-05-05T20:27:18.395Z,15.80
2023-05-05T20:32:21.425Z,15.80
2023-05-05T20:37:27.058Z,15.70
2023-05-05T20:42:30.035Z,15.60
2023-05-05T20:47:35.447Z,15.50
2023-05-05T20:52:38.703Z,15.20
2023-05-05T20:57:41.756Z,14.90
2023-05-05T21:02:45.689Z,14.70
2023-05-05T21:07:49.052Z,14.40
2023-05-05T21:12:52.018Z,14.20
2023-05-05T21:17:55.510Z,14.10
2023-05-05T21:22:58.540Z,14.00
2023-05-05T21:28:01.498Z,13.90
2023-05-05T21:33:04.610Z,13.90
2023-05-05T21:38:08.356Z,14.00
2023-05-05T21:43:11.338Z,14.00
2023-05-05T21:48:14.352Z,14.10
2023-05-05T21:53:17.347Z,14.00
2023-05-05T21:58:20.479Z,13.90
2023-05-05T22:03:23.884Z,13.80
2023-05-05T22:08:26.996Z,13.70
2023-05-05T22:13:30.645Z,13.60
2023-05-05T22:18:34.315Z,13.50
2023-05-05T22:23:37.725Z,13.40
2023-05-05T22:28:41.615Z,13.30
2023-05-05T22:33:44.628Z,13.30
2023-05-05T22:38:49.799Z,13.30
2023-05-05T22:43:53.051Z,13.30
2023-05-05T22:48:56.046Z,13.30
2023-05-05T22:53:59.090Z,13.20
2023-05-05T22:59:02.136Z,13.20
2023-05-05T23:04:05.426Z,13.10
2023-05-05T23:09:08.496Z,13.00
2023-05-05T23:14:11.237Z,12.90
2023-05-05T23:19:14.434Z,12.90
2023-05-05T23:24:17.452Z,12.90
2023-05-05T23:29:21.343Z,13.00
2023-05-05T23:34:26.606Z,13.10
2023-05-05T23:39:29.507Z,13.10
2023-05-05T23:44:32.594Z,13.10
2023-05-05T23:49:35.563Z,13.00
2023-05-05T23:54:38.580Z,12.80
2023-05-05T23:59:41.334Z,12.70
